Time;durP1;ratioP1;P1;durP2;ratioP2;P2;SDS_P1;SDS_P2;PMS_P1;PMS_P2;Temp;Humidity;BMP_temperature;BMP_pressure;BME280_temperature;BME280_humidity;BME280_pressure;Samples;Min_cycle;Max_cycle;Signal;HPM_P1;HPM_P2
2023/12/16 00:02:09;;;;;;;12.57;3.58;;;;;;;;;;4889749;29;20056;-71
2023/12/16 00:04:35;;;;;;;9.90;4.00;;;;;;;;;;4892878;29;20139;-72
2023/12/16 00:07:01;;;;;;;10.55;4.50;;;;;;;;;;4885759;29;20064;-71
2023/12/16 00:09:27;;;;;;;12.70;3.88;;;;;;;;;;4895232;29;20575;-71
2023/12/16 00:11:54;;;;;;;7.50;3.65;;;;;;;;;;4893585;29;20076;-71
2023/12/16 00:14:20;;;;;;;11.43;3.97;;;;;;;;;;4887108;29;20123;-71
2023/12/16 00:16:46;;;;;;;11.43;3.90;;;;;;;;;;4888616;29;20058;-71
2023/12/16 00:19:12;;;;;;;9.55;3.50;;;;;;;;;;4884399;29;20161;-71
2023/12/16 00:21:38;;;;;;;13.95;3.55;;;;;;;;;;4884716;29;20044;-71
2023/12/16 00:24:06;;;;;;;10.80;3.75;;;;;;;;;;4887073;29;20550;-71
2023/12/16 00:26:32;;;;;;;10.23;3.88;;;;;;;;;;4895635;29;20044;-71
2023/12/16 00:28:58;;;;;;;14.18;3.80;;;;;;;;;;4896899;29;20044;-71
2023/12/16 00:31:24;;;;;;;10.73;3.72;;;;;;;;;;4890231;29;20041;-71
2023/12/16 00:33:50;;;;;;;11.68;3.80;;;;;;;;;;4883631;29;20056;-71
2023/12/16 00:36:17;;;;;;;10.95;3.67;;;;;;;;;;4881751;29;20052;-71
2023/12/16 00:38:43;;;;;;;12.02;4.00;;;;;;;;;;4891226;29;20049;-71
2023/12/16 00:41:09;;;;;;;15.20;4.13;;;;;;;;;;4886947;29;20549;-71
2023/12/16 00:43:35;;;;;;;14.88;3.60;;;;;;;;;;4898507;29;20055;-71
2023/12/16 00:46:01;;;;;;;8.60;3.63;;;;;;;;;;4888167;29;20087;-71
2023/12/16 00:48:27;;;;;;;17.95;4.45;;;;;;;;;;4886657;29;20139;-71
2023/12/16 00:50:54;;;;;;;11.45;3.80;;;;;;;;;;4892961;29;20500;-71
2023/12/16 00:53:20;;;;;;;18.13;4.03;;;;;;;;;;4885596;29;20151;-71
2023/12/16 00:55:46;;;;;;;16.75;3.63;;;;;;;;;;4885042;29;20528;-71
2023/12/16 00:58:12;;;;;;;17.52;3.70;;;;;;;;;;4882245;29;20052;-71
2023/12/16 01:00:38;;;;;;;14.55;3.97;;;;;;;;;;4884286;29;20556;-71
2023/12/16 01:03:04;;;;;;;13.23;3.80;;;;;;;;;;4898570;29;20136;-71
2023/12/16 01:05:30;;;;;;;11.73;4.28;;;;;;;;;;4892495;29;20134;-71
2023/12/16 01:07:56;;;;;;;13.23;3.33;;;;;;;;;;4897862;29;20040;-71
2023/12/16 01:10:23;;;;;;;15.35;4.32;;;;;;;;;;4896695;29;20048;-71
2023/12/16 01:12:49;;;;;;;14.00;3.75;;;;;;;;;;4893822;29;20489;-71
2023/12/16 01:15:15;;;;;;;8.95;3.60;;;;;;;;;;4901163;29;20040;-71
2023/12/16 01:17:41;;;;;;;10.98;3.28;;;;;;;;;;4895239;29;20056;-71
2023/12/16 01:20:08;;;;;;;11.93;4.10;;;;;;;;;;4918619;29;20040;-71
2023/12/16 01:22:34;;;;;;;15.77;3.92;;;;;;;;;;4914140;29;20066;-71
2023/12/16 01:25:00;;;;;;;15.63;4.00;;;;;;;;;;4899759;29;20080;-71
2023/12/16 01:27:26;;;;;;;14.40;3.88;;;;;;;;;;4902366;29;20088;-71
2023/12/16 01:29:52;;;;;;;14.00;3.95;;;;;;;;;;4900663;29;20052;-71
2023/12/16 01:32:18;;;;;;;9.27;3.38;;;;;;;;;;4900835;29;20453;-71
2023/12/16 01:34:44;;;;;;;11.73;3.65;;;;;;;;;;4900973;29;20105;-71
2023/12/16 01:37:10;;;;;;;9.13;3.78;;;;;;;;;;4894435;29;20051;-71
2023/12/16 01:39:36;;;;;;;13.65;3.95;;;;;;;;;;4893206;29;20531;-71
2023/12/16 01:42:02;;;;;;;9.50;3.95;;;;;;;;;;4886418;29;20058;-71
2023/12/16 01:44:29;;;;;;;14.80;3.83;;;;;;;;;;4889037;29;20512;-71
2023/12/16 01:46:55;;;;;;;13.65;4.00;;;;;;;;;;4883995;29;20433;-71
2023/12/16 01:49:22;;;;;;;16.80;3.90;;;;;;;;;;4887911;29;20112;-71
2023/12/16 01:51:49;;;;;;;15.63;3.90;;;;;;;;;;4891581;29;20069;-71
2023/12/16 01:54:15;;;;;;;13.70;4.30;;;;;;;;;;4887915;29;20050;-71
2023/12/16 01:56:42;;;;;;;18.42;4.68;;;;;;;;;;4885779;29;20051;-72
2023/12/16 01:59:08;;;;;;;20.55;3.97;;;;;;;;;;4888031;29;20411;-71
2023/12/16 02:01:34;;;;;;;15.30;4.32;;;;;;;;;;4890545;29;20044;-71
2023/12/16 02:04:00;;;;;;;18.77;4.97;;;;;;;;;;4883470;29;20524;-71
2023/12/16 02:06:26;;;;;;;15.80;3.78;;;;;;;;;;4886908;29;20461;-71
2023/12/16 02:08:52;;;;;;;13.98;4.03;;;;;;;;;;4885113;29;20052;-71
2023/12/16 02:11:19;;;;;;;17.05;4.70;;;;;;;;;;4909831;29;20048;-71
2023/12/16 02:13:45;;;;;;;11.23;3.97;;;;;;;;;;4891666;29;20084;-71
2023/12/16 02:16:11;;;;;;;11.45;3.80;;;;;;;;;;4888484;29;20087;-71
2023/12/16 02:18:37;;;;;;;13.75;3.80;;;;;;;;;;4894733;29;20059;-71
2023/12/16 02:21:03;;;;;;;13.20;3.80;;;;;;;;;;4897400;29;20051;-71
2023/12/16 02:23:29;;;;;;;14.98;4.80;;;;;;;;;;4898916;29;20191;-71
2023/12/16 02:25:55;;;;;;;16.95;3.60;;;;;;;;;;4899751;29;20513;-71
2023/12/16 02:28:21;;;;;;;18.20;4.13;;;;;;;;;;4899098;29;20070;-71
2023/12/16 02:30:47;;;;;;;18.35;4.15;;;;;;;;;;4881351;29;20053;-71
2023/12/16 02:33:13;;;;;;;20.88;4.55;;;;;;;;;;4885534;29;20055;-71
2023/12/16 02:35:39;;;;;;;17.55;4.68;;;;;;;;;;4893910;29;20048;-71
2023/12/16 02:38:05;;;;;;;16.05;4.40;;;;;;;;;;4890830;29;20475;-71
2023/12/16 02:40:31;;;;;;;21.10;4.53;;;;;;;;;;4889228;29;20060;-71
2023/12/16 02:42:57;;;;;;;15.38;4.00;;;;;;;;;;4886076;29;20052;-71
2023/12/16 02:45:24;;;;;;;15.52;4.63;;;;;;;;;;4886508;29;20049;-71
2023/12/16 02:47:50;;;;;;;16.25;5.05;;;;;;;;;;4888674;29;20396;-71
2023/12/16 02:50:16;;;;;;;20.52;4.63;;;;;;;;;;4882892;29;20504;-71
2023/12/16 02:52:42;;;;;;;17.13;4.60;;;;;;;;;;4883241;29;20045;-71
2023/12/16 02:55:09;;;;;;;14.43;4.70;;;;;;;;;;4890414;29;20056;-71
2023/12/16 02:57:49;;;;;;;19.20;4.63;;;;;;;;;;5173739;27;20114;-71
2023/12/16 03:00:15;;;;;;;12.73;4.00;;;;;;;;;;5142744;27;20055;-70
2023/12/16 03:02:41;;;;;;;18.00;4.88;;;;;;;;;;5135960;27;20111;-71
2023/12/16 03:05:07;;;;;;;24.52;5.35;;;;;;;;;;5145068;27;20074;-71
2023/12/16 03:07:33;;;;;;;16.52;4.65;;;;;;;;;;5138334;27;20056;-71
2023/12/16 03:09:59;;;;;;;21.25;4.75;;;;;;;;;;5148494;27;20121;-70
2023/12/16 03:12:25;;;;;;;17.30;5.03;;;;;;;;;;5144587;27;20096;-71
2023/12/16 03:14:52;;;;;;;18.17;5.22;;;;;;;;;;5151143;27;20051;-71
2023/12/16 03:17:18;;;;;;;22.52;5.00;;;;;;;;;;5140500;27;20050;-71
2023/12/16 03:19:44;;;;;;;18.90;5.18;;;;;;;;;;5145577;27;20034;-71
2023/12/16 03:22:10;;;;;;;16.55;4.80;;;;;;;;;;5147144;27;20035;-71
2023/12/16 03:24:36;;;;;;;17.63;5.05;;;;;;;;;;5140343;27;20453;-70
2023/12/16 03:27:02;;;;;;;23.38;5.60;;;;;;;;;;5148882;27;20133;-70
2023/12/16 03:29:28;;;;;;;18.60;5.47;;;;;;;;;;5152590;27;20077;-70
2023/12/16 03:31:55;;;;;;;15.65;4.75;;;;;;;;;;5151782;27;20054;-70
2023/12/16 03:34:22;;;;;;;25.00;5.70;;;;;;;;;;5136634;27;20051;-70
2023/12/16 03:36:48;;;;;;;19.85;5.63;;;;;;;;;;5133230;27;20323;-71
2023/12/16 03:39:14;;;;;;;22.25;5.60;;;;;;;;;;5140006;27;20034;-70
2023/12/16 03:41:40;;;;;;;22.55;5.13;;;;;;;;;;5140703;27;20046;-71
2023/12/16 03:44:06;;;;;;;24.63;5.20;;;;;;;;;;5142231;27;20382;-70
2023/12/16 03:46:32;;;;;;;27.50;5.32;;;;;;;;;;5141569;27;20043;-70
2023/12/16 03:48:58;;;;;;;23.48;5.85;;;;;;;;;;5142281;27;20546;-71
2023/12/16 03:51:24;;;;;;;26.98;5.93;;;;;;;;;;5140435;27;20038;-70
2023/12/16 03:53:50;;;;;;;26.05;6.57;;;;;;;;;;5133473;27;20420;-70
2023/12/16 03:56:16;;;;;;;23.15;5.90;;;;;;;;;;5145974;27;20055;-70
2023/12/16 03:58:42;;;;;;;26.95;7.50;;;;;;;;;;5143628;27;20054;-70
2023/12/16 04:01:13;;;;;;;33.58;7.18;;;;;;;;;;5140041;27;20050;-71
2023/12/16 04:03:42;;;;;;;24.98;5.82;;;;;;;;;;5141299;27;20052;-70
2023/12/16 04:06:14;;;;;;;25.98;7.00;;;;;;;;;;5142930;27;20068;-71
2023/12/16 04:08:41;;;;;;;20.97;5.60;;;;;;;;;;5135897;27;20050;-71
2023/12/16 04:11:07;;;;;;;29.10;6.50;;;;;;;;;;5128810;27;20297;-71
2023/12/16 04:13:36;;;;;;;26.35;6.55;;;;;;;;;;5125420;27;20049;-71
2023/12/16 04:16:03;;;;;;;38.17;7.10;;;;;;;;;;5123543;27;20133;-71
2023/12/16 04:18:30;;;;;;;28.73;6.80;;;;;;;;;;5127693;27;20043;-71
2023/12/16 04:20:56;;;;;;;26.30;6.22;;;;;;;;;;5128830;27;20034;-70
2023/12/16 04:23:22;;;;;;;34.60;6.53;;;;;;;;;;5124933;27;20380;-71
2023/12/16 04:25:48;;;;;;;30.45;7.22;;;;;;;;;;5128806;27;20572;-71
2023/12/16 04:28:14;;;;;;;33.55;7.40;;;;;;;;;;5133649;27;20117;-71
2023/12/16 04:30:40;;;;;;;35.53;8.63;;;;;;;;;;5127602;27;20137;-71
2023/12/16 04:33:06;;;;;;;26.83;7.25;;;;;;;;;;5146628;27;20054;-71
2023/12/16 04:35:32;;;;;;;34.75;7.78;;;;;;;;;;5133185;27;20054;-71
2023/12/16 04:37:58;;;;;;;27.77;7.85;;;;;;;;;;5130254;27;20050;-71
2023/12/16 04:40:25;;;;;;;31.42;6.82;;;;;;;;;;5130838;27;20046;-71
2023/12/16 04:42:51;;;;;;;29.70;7.35;;;;;;;;;;5152118;27;20046;-71
2023/12/16 04:45:17;;;;;;;30.55;7.72;;;;;;;;;;5130681;27;20062;-70
2023/12/16 04:47:43;;;;;;;27.63;7.15;;;;;;;;;;5132957;27;20473;-70
2023/12/16 04:50:09;;;;;;;30.33;7.93;;;;;;;;;;5128426;27;20123;-71
2023/12/16 04:52:35;;;;;;;33.38;9.35;;;;;;;;;;5132875;27;20109;-71
2023/12/16 04:55:01;;;;;;;32.70;7.10;;;;;;;;;;5133981;27;20584;-71
2023/12/16 04:57:27;;;;;;;33.15;8.07;;;;;;;;;;5123962;27;20141;-70
2023/12/16 04:59:53;;;;;;;34.47;7.43;;;;;;;;;;5147252;27;20043;-70
2023/12/16 05:02:19;;;;;;;29.52;7.90;;;;;;;;;;5130688;27;20054;-70
2023/12/16 05:04:45;;;;;;;25.73;6.75;;;;;;;;;;5119482;27;20047;-71
2023/12/16 05:07:11;;;;;;;19.65;7.47;;;;;;;;;;5130232;27;20115;-71
2023/12/16 05:09:37;;;;;;;34.70;8.05;;;;;;;;;;5127193;27;20060;-71
2023/12/16 05:12:03;;;;;;;27.70;7.10;;;;;;;;;;5148059;27;20042;-70
2023/12/16 05:14:29;;;;;;;28.73;6.90;;;;;;;;;;5123746;27;20072;-70
2023/12/16 05:16:55;;;;;;;27.50;6.97;;;;;;;;;;5131673;27;20051;-70
2023/12/16 05:19:21;;;;;;;22.63;6.70;;;;;;;;;;5131850;27;20405;-71
2023/12/16 05:21:48;;;;;;;34.40;8.68;;;;;;;;;;5125857;27;20046;-71
2023/12/16 05:24:15;;;;;;;36.97;8.70;;;;;;;;;;5128500;27;20103;-71
2023/12/16 05:26:41;;;;;;;30.60;7.25;;;;;;;;;;5128887;27;20047;-71
2023/12/16 05:29:07;;;;;;;32.45;7.70;;;;;;;;;;5129792;27;20092;-71
2023/12/16 05:31:33;;;;;;;29.08;7.18;;;;;;;;;;5127061;27;20050;-71
2023/12/16 05:33:59;;;;;;;34.78;8.13;;;;;;;;;;5134399;27;20486;-71
2023/12/16 05:36:25;;;;;;;32.25;7.38;;;;;;;;;;5129859;27;20078;-71
2023/12/16 05:38:51;;;;;;;36.92;8.25;;;;;;;;;;5129812;27;20405;-71
2023/12/16 05:41:17;;;;;;;29.45;7.85;;;;;;;;;;5131455;27;20034;-71
2023/12/16 05:43:44;;;;;;;37.35;8.63;;;;;;;;;;5130238;27;20043;-71
2023/12/16 05:46:10;;;;;;;28.98;7.60;;;;;;;;;;5131188;27;20050;-71
2023/12/16 05:48:36;;;;;;;41.42;8.57;;;;;;;;;;5128054;27;20359;-70
2023/12/16 05:51:02;;;;;;;28.35;7.93;;;;;;;;;;5130978;27;20047;-70
2023/12/16 05:53:28;;;;;;;33.78;8.65;;;;;;;;;;5129987;27;20506;-71
2023/12/16 05:55:54;;;;;;;36.42;8.52;;;;;;;;;;5132015;27;20046;-71
2023/12/16 05:58:20;;;;;;;36.55;8.30;;;;;;;;;;5128650;27;20046;-71
2023/12/16 06:00:46;;;;;;;31.65;7.45;;;;;;;;;;5127431;27;20040;-71
2023/12/16 06:03:12;;;;;;;34.33;7.60;;;;;;;;;;5122884;27;20137;-71
2023/12/16 06:05:38;;;;;;;43.22;8.93;;;;;;;;;;5127901;27;20180;-71
2023/12/16 06:08:04;;;;;;;42.33;7.97;;;;;;;;;;5127837;27;20053;-70
2023/12/16 06:10:30;;;;;;;40.60;7.75;;;;;;;;;;5126675;27;20057;-70
2023/12/16 06:12:57;;;;;;;28.95;8.52;;;;;;;;;;5146985;27;20172;-70
2023/12/16 06:15:23;;;;;;;36.88;9.07;;;;;;;;;;5125790;27;20038;-70
2023/12/16 06:17:49;;;;;;;33.28;8.25;;;;;;;;;;5126135;27;20047;-70
2023/12/16 06:20:15;;;;;;;36.03;8.25;;;;;;;;;;5127306;27;20046;-70
2023/12/16 06:22:41;;;;;;;36.65;7.97;;;;;;;;;;5126293;27;20065;-70
2023/12/16 06:25:07;;;;;;;21.45;6.57;;;;;;;;;;5132139;27;20362;-70
2023/12/16 06:27:33;;;;;;;27.52;7.90;;;;;;;;;;5130389;27;20489;-70
2023/12/16 06:29:59;;;;;;;36.15;7.78;;;;;;;;;;5131703;27;20043;-70
2023/12/16 06:32:25;;;;;;;33.55;7.00;;;;;;;;;;5125135;27;20390;-71
2023/12/16 06:34:51;;;;;;;34.00;7.72;;;;;;;;;;5132233;27;20072;-70
2023/12/16 06:37:17;;;;;;;29.85;7.78;;;;;;;;;;5131313;27;20050;-70
2023/12/16 06:39:43;;;;;;;28.98;8.15;;;;;;;;;;5148905;27;20047;-71
2023/12/16 06:42:09;;;;;;;27.20;7.00;;;;;;;;;;5142620;27;20111;-71
2023/12/16 06:44:36;;;;;;;31.35;7.20;;;;;;;;;;5123791;27;20095;-71
2023/12/16 06:47:02;;;;;;;31.58;8.40;;;;;;;;;;5125818;27;20444;-70
2023/12/16 06:49:28;;;;;;;31.25;7.50;;;;;;;;;;5131088;27;20046;-70
2023/12/16 06:51:54;;;;;;;28.73;7.38;;;;;;;;;;5127129;27;20043;-70
2023/12/16 06:54:21;;;;;;;35.50;7.72;;;;;;;;;;5126827;27;20457;-70
2023/12/16 06:56:47;;;;;;;36.55;8.10;;;;;;;;;;5123070;27;20054;-71
2023/12/16 06:59:13;;;;;;;28.95;7.72;;;;;;;;;;5131039;27;20042;-71
2023/12/16 07:01:39;;;;;;;37.60;8.10;;;;;;;;;;5122647;27;20070;-70
2023/12/16 07:04:05;;;;;;;37.67;8.25;;;;;;;;;;5121478;27;20047;-70
2023/12/16 07:06:31;;;;;;;32.13;7.43;;;;;;;;;;5123839;27;20512;-71
2023/12/16 07:08:57;;;;;;;34.85;7.65;;;;;;;;;;5131309;27;20408;-70
2023/12/16 07:11:23;;;;;;;37.58;8.25;;;;;;;;;;5127445;27;20442;-70
2023/12/16 07:13:49;;;;;;;33.08;7.78;;;;;;;;;;5128691;27;20047;-71
2023/12/16 07:16:16;;;;;;;31.70;7.65;;;;;;;;;;5143795;27;20118;-70
2023/12/16 07:18:42;;;;;;;19.08;6.13;;;;;;;;;;5124782;27;20043;-71
2023/12/16 07:21:08;;;;;;;30.23;7.75;;;;;;;;;;5124840;27;20042;-71
2023/12/16 07:23:35;;;;;;;27.00;8.43;;;;;;;;;;5121683;27;20098;-70
2023/12/16 07:26:01;;;;;;;59.10;17.63;;;;;;;;;;5124088;28;20043;-70
2023/12/16 07:28:27;;;;;;;29.40;7.85;;;;;;;;;;5130878;27;21477;-70
2023/12/16 07:30:53;;;;;;;31.35;7.70;;;;;;;;;;5129468;27;20050;-71
2023/12/16 07:33:19;;;;;;;42.65;8.77;;;;;;;;;;5141297;27;20078;-70
2023/12/16 07:35:45;;;;;;;24.35;7.00;;;;;;;;;;5131884;27;20082;-71
2023/12/16 07:38:11;;;;;;;25.92;6.82;;;;;;;;;;5125129;27;20079;-71
2023/12/16 07:40:37;;;;;;;27.13;7.50;;;;;;;;;;5122660;28;20047;-71
2023/12/16 07:43:03;;;;;;;33.67;7.78;;;;;;;;;;5125477;27;20043;-70
2023/12/16 07:45:30;;;;;;;25.10;5.90;;;;;;;;;;5122465;27;20043;-71
2023/12/16 07:47:56;;;;;;;31.80;7.15;;;;;;;;;;5122129;27;20055;-71
2023/12/16 07:50:22;;;;;;;24.75;6.90;;;;;;;;;;5136844;27;20058;-71
2023/12/16 07:52:48;;;;;;;25.58;6.95;;;;;;;;;;5126745;27;20192;-70
2023/12/16 07:55:14;;;;;;;30.17;8.20;;;;;;;;;;5130532;27;20043;-70
2023/12/16 07:57:40;;;;;;;31.67;7.55;;;;;;;;;;5125518;27;20062;-71
2023/12/16 08:00:08;;;;;;;29.58;7.25;;;;;;;;;;5121296;27;20050;-71
2023/12/16 08:02:35;;;;;;;37.92;8.35;;;;;;;;;;5130312;27;20051;-71
2023/12/16 08:05:02;;;;;;;36.53;8.75;;;;;;;;;;5124171;27;20095;-71
2023/12/16 08:07:29;;;;;;;33.45;8.60;;;;;;;;;;5130051;27;20047;-72
2023/12/16 08:09:55;;;;;;;31.15;6.97;;;;;;;;;;5117610;27;20042;-71
2023/12/16 08:12:20;;;;;;;32.95;7.78;;;;;;;;;;5127040;27;20379;-71
2023/12/16 08:14:46;;;;;;;26.23;6.75;;;;;;;;;;5132232;27;20057;-71
2023/12/16 08:17:13;;;;;;;31.85;7.10;;;;;;;;;;5121311;27;20043;-71
2023/12/16 08:19:39;;;;;;;24.75;7.18;;;;;;;;;;5117463;27;20051;-71
2023/12/16 08:22:05;;;;;;;28.67;7.05;;;;;;;;;;5138782;27;20047;-71
2023/12/16 08:24:32;;;;;;;32.03;7.60;;;;;;;;;;5125466;27;20047;-71
2023/12/16 08:26:58;;;;;;;34.70;7.00;;;;;;;;;;5127629;27;20097;-71
2023/12/16 08:29:24;;;;;;;25.70;6.15;;;;;;;;;;5149121;27;20039;-70
2023/12/16 08:31:50;;;;;;;30.25;7.85;;;;;;;;;;5121782;27;20050;-70
2023/12/16 08:34:16;;;;;;;38.72;8.90;;;;;;;;;;5143962;27;20039;-70
2023/12/16 08:36:43;;;;;;;30.50;7.63;;;;;;;;;;5143625;27;20050;-70
2023/12/16 08:39:09;;;;;;;28.20;8.90;;;;;;;;;;5129737;27;20057;-72
2023/12/16 08:41:38;;;;;;;34.53;7.75;;;;;;;;;;5126870;27;20083;-70
2023/12/16 08:44:04;;;;;;;28.27;7.57;;;;;;;;;;5126243;27;20049;-70
2023/12/16 08:46:30;;;;;;;36.10;10.90;;;;;;;;;;5127069;27;20073;-70
2023/12/16 08:48:56;;;;;;;28.83;8.18;;;;;;;;;;5120639;27;20054;-70
2023/12/16 08:51:23;;;;;;;29.70;8.07;;;;;;;;;;5125306;27;20167;-70
2023/12/16 08:53:49;;;;;;;33.65;8.27;;;;;;;;;;5124703;27;20070;-70
2023/12/16 08:56:17;;;;;;;31.20;8.15;;;;;;;;;;5124915;27;20077;-70
2023/12/16 08:58:45;;;;;;;25.55;7.78;;;;;;;;;;5122623;27;20125;-70
2023/12/16 09:01:11;;;;;;;31.58;8.20;;;;;;;;;;5126681;27;20031;-70
2023/12/16 09:03:37;;;;;;;30.10;8.38;;;;;;;;;;5131473;27;20050;-70
2023/12/16 09:06:03;;;;;;;23.23;7.68;;;;;;;;;;5149122;27;20043;-70
2023/12/16 09:08:30;;;;;;;25.05;8.18;;;;;;;;;;5128136;27;20047;-70
2023/12/16 09:10:56;;;;;;;32.65;8.05;;;;;;;;;;5128705;27;20059;-70
2023/12/16 09:13:22;;;;;;;31.25;8.50;;;;;;;;;;5128241;27;20095;-70
2023/12/16 09:15:48;;;;;;;21.13;6.82;;;;;;;;;;5129549;27;20057;-70
2023/12/16 09:18:14;;;;;;;20.35;7.97;;;;;;;;;;5130319;27;20043;-70
2023/12/16 09:20:40;;;;;;;30.02;8.20;;;;;;;;;;5126525;27;20051;-70
2023/12/16 09:23:06;;;;;;;28.00;8.98;;;;;;;;;;5143219;27;20046;-70
2023/12/16 09:25:32;;;;;;;30.98;9.73;;;;;;;;;;5143473;27;20582;-70
2023/12/16 09:27:58;;;;;;;25.70;8.95;;;;;;;;;;5127991;27;20113;-70
2023/12/16 09:30:24;;;;;;;38.85;14.48;;;;;;;;;;5145640;27;20055;-70
2023/12/16 09:32:50;;;;;;;28.15;9.60;;;;;;;;;;5129228;27;20135;-70
2023/12/16 09:35:16;;;;;;;28.70;10.32;;;;;;;;;;5129956;27;20502;-70
2023/12/16 09:37:42;;;;;;;23.17;9.10;;;;;;;;;;5143918;27;20058;-70
2023/12/16 09:40:08;;;;;;;23.92;9.27;;;;;;;;;;5124178;27;20035;-70
2023/12/16 09:42:36;;;;;;;21.80;8.88;;;;;;;;;;5125770;27;20070;-70
2023/12/16 09:45:02;;;;;;;27.77;9.40;;;;;;;;;;5130526;27;20039;-70
2023/12/16 09:47:28;;;;;;;28.48;10.05;;;;;;;;;;5132081;27;20089;-70
2023/12/16 09:49:59;;;;;;;32.13;11.07;;;;;;;;;;5126199;27;20474;-70
2023/12/16 09:52:25;;;;;;;32.45;10.38;;;;;;;;;;5124122;27;20046;-70
2023/12/16 09:54:52;;;;;;;27.00;9.57;;;;;;;;;;5126783;27;20050;-70
2023/12/16 09:57:19;;;;;;;27.33;9.50;;;;;;;;;;5127793;27;20087;-70
2023/12/16 09:59:45;;;;;;;36.78;10.55;;;;;;;;;;5119755;27;20088;-70
2023/12/16 10:02:27;;;;;;;24.33;8.55;;;;;;;;;;5124975;27;20143;-70
2023/12/16 10:04:57;;;;;;;22.50;7.63;;;;;;;;;;5126550;27;20125;-70
2023/12/16 10:07:24;;;;;;;15.98;6.75;;;;;;;;;;5115089;27;20442;-70
2023/12/16 10:09:50;;;;;;;28.05;8.63;;;;;;;;;;5123903;27;20043;-70
2023/12/16 10:12:16;;;;;;;27.70;7.97;;;;;;;;;;5126558;27;20067;-70
2023/12/16 10:14:48;;;;;;;28.92;8.55;;;;;;;;;;5128157;27;20042;-70
2023/12/16 10:17:17;;;;;;;25.13;8.15;;;;;;;;;;5124100;27;21068;-70
2023/12/16 10:19:44;;;;;;;30.88;8.30;;;;;;;;;;5124135;27;20061;-71
2023/12/16 10:22:11;;;;;;;22.42;8.10;;;;;;;;;;5127237;27;20126;-70
2023/12/16 10:24:37;;;;;;;22.50;8.20;;;;;;;;;;5121539;27;20179;-70
2023/12/16 10:27:07;;;;;;;21.95;8.23;;;;;;;;;;5123222;27;20047;-70
2023/12/16 10:29:33;;;;;;;30.73;8.68;;;;;;;;;;5127319;27;20083;-70
2023/12/16 10:32:00;;;;;;;23.25;9.43;;;;;;;;;;5122352;27;20051;-70
2023/12/16 10:34:30;;;;;;;20.50;7.88;;;;;;;;;;5123697;27;20054;-70
2023/12/16 10:37:06;;;;;;;20.10;7.47;;;;;;;;;;5122397;27;20100;-70
2023/12/16 10:39:33;;;;;;;16.45;7.20;;;;;;;;;;5123903;27;20126;-70
2023/12/16 10:41:59;;;;;;;21.23;8.38;;;;;;;;;;5122884;27;20087;-70
2023/12/16 10:44:25;;;;;;;19.55;8.13;;;;;;;;;;5127775;27;20054;-70
2023/12/16 10:46:53;;;;;;;18.58;7.80;;;;;;;;;;5124607;27;20569;-70
2023/12/16 10:49:20;;;;;;;17.40;7.40;;;;;;;;;;5120904;27;20046;-70
2023/12/16 10:51:48;;;;;;;15.63;6.85;;;;;;;;;;5118454;27;20474;-70
2023/12/16 10:54:32;;;;;;;22.05;8.40;;;;;;;;;;5119663;27;20414;-70
2023/12/16 10:57:21;;;;;;;25.27;7.22;;;;;;;;;;5113353;28;20051;-70
2023/12/16 10:59:57;;;;;;;24.48;8.02;;;;;;;;;;5122165;28;20126;-70
2023/12/16 11:02:26;;;;;;;19.13;7.32;;;;;;;;;;5121412;28;20039;-70
2023/12/16 11:04:57;;;;;;;17.38;7.32;;;;;;;;;;5129559;28;20499;-70
2023/12/16 11:07:26;;;;;;;12.10;6.32;;;;;;;;;;5121801;28;20051;-70
2023/12/16 11:09:52;;;;;;;15.20;6.57;;;;;;;;;;5122237;28;20047;-70
2023/12/16 11:12:19;;;;;;;15.13;7.30;;;;;;;;;;5126367;28;20039;-70
2023/12/16 11:14:45;;;;;;;18.88;7.38;;;;;;;;;;5125270;28;20059;-70
2023/12/16 11:17:15;;;;;;;17.80;7.13;;;;;;;;;;5121857;27;20050;-70
2023/12/16 11:19:45;;;;;;;17.38;7.43;;;;;;;;;;5132525;27;20399;-70
2023/12/16 11:22:15;;;;;;;19.85;7.30;;;;;;;;;;5129052;27;20452;-70
2023/12/16 11:24:41;;;;;;;21.27;7.20;;;;;;;;;;5128893;27;20054;-70
2023/12/16 11:27:07;;;;;;;19.55;7.10;;;;;;;;;;5126294;27;20031;-70
2023/12/16 11:29:34;;;;;;;18.40;7.28;;;;;;;;;;5123039;27;20459;-70
2023/12/16 11:32:03;;;;;;;21.50;7.32;;;;;;;;;;5124377;27;20033;-70
2023/12/16 11:34:47;;;;;;;19.02;9.00;;;;;;;;;;5129014;27;20474;-70
2023/12/16 11:37:12;;;;;;;;;;;;;;;;;;5130082;27;20043;-70
2023/12/16 11:39:40;;;;;;;21.67;8.05;;;;;;;;;;5127706;27;19920;-70
2023/12/16 11:42:06;;;;;;;22.27;9.52;;;;;;;;;;5131146;27;20118;-70
2023/12/16 11:44:52;;;;;;;19.80;8.25;;;;;;;;;;5128263;27;20470;-71
2023/12/16 11:47:23;;;;;;;19.55;7.13;;;;;;;;;;5129743;27;20058;-70
2023/12/16 11:49:49;;;;;;;17.10;7.05;;;;;;;;;;5127041;27;20357;-70
2023/12/16 11:52:22;;;;;;;20.73;7.78;;;;;;;;;;5127115;27;20043;-70
2023/12/16 11:54:55;;;;;;;19.00;7.88;;;;;;;;;;5116113;27;20059;-70
2023/12/16 11:57:25;;;;;;;21.52;6.90;;;;;;;;;;5115084;27;20572;-70
2023/12/16 11:59:52;;;;;;;19.30;7.90;;;;;;;;;;5105501;28;20130;-70
2023/12/16 12:02:18;;;;;;;13.45;6.65;;;;;;;;;;5107014;27;20039;-70
2023/12/16 12:04:45;;;;;;;21.83;6.32;;;;;;;;;;5109962;27;20357;-71
2023/12/16 12:07:11;;;;;;;19.48;6.93;;;;;;;;;;5105753;28;20048;-70
2023/12/16 12:09:40;;;;;;;13.13;6.20;;;;;;;;;;5105412;27;20039;-70
2023/12/16 12:12:06;;;;;;;19.80;7.40;;;;;;;;;;5103397;27;20055;-70
2023/12/16 12:14:32;;;;;;;17.42;7.60;;;;;;;;;;5107811;27;20047;-70
2023/12/16 12:16:59;;;;;;;14.95;6.43;;;;;;;;;;5102817;28;20468;-70
2023/12/16 12:19:25;;;;;;;25.70;8.73;;;;;;;;;;5100142;28;20048;-70
2023/12/16 12:21:51;;;;;;;19.20;7.70;;;;;;;;;;5101147;28;20047;-70
2023/12/16 12:24:17;;;;;;;17.70;7.60;;;;;;;;;;5106841;27;20141;-70
2023/12/16 12:26:44;;;;;;;14.63;5.93;;;;;;;;;;5094179;28;20127;-70
2023/12/16 12:29:10;;;;;;;19.92;6.88;;;;;;;;;;5104265;27;20046;-70
2023/12/16 12:31:43;;;;;;;18.90;7.00;;;;;;;;;;5108345;27;20432;-70
2023/12/16 12:34:11;;;;;;;15.68;6.50;;;;;;;;;;5110039;27;20070;-70
2023/12/16 12:36:37;;;;;;;12.30;5.60;;;;;;;;;;5109554;27;20035;-70
2023/12/16 12:39:06;;;;;;;19.20;6.88;;;;;;;;;;5109872;27;20108;-71
2023/12/16 12:41:32;;;;;;;20.85;6.22;;;;;;;;;;5107021;27;20228;-70
2023/12/16 12:43:58;;;;;;;15.00;6.05;;;;;;;;;;5101679;27;20567;-70
2023/12/16 12:46:24;;;;;;;22.20;6.88;;;;;;;;;;5102218;27;20054;-70
2023/12/16 12:48:57;;;;;;;10.32;5.43;;;;;;;;;;5104577;27;20044;-70
2023/12/16 12:51:23;;;;;;;20.08;6.35;;;;;;;;;;5107355;27;20075;-71
2023/12/16 12:53:56;;;;;;;18.17;6.88;;;;;;;;;;5105642;28;20138;-70
2023/12/16 12:56:22;;;;;;;16.02;5.93;;;;;;;;;;5118558;27;20063;-70
2023/12/16 12:58:48;;;;;;;14.63;6.03;;;;;;;;;;5123254;27;20427;-70
2023/12/16 13:01:15;;;;;;;11.38;5.25;;;;;;;;;;5125976;27;20043;-70
2023/12/16 13:03:42;;;;;;;19.13;6.78;;;;;;;;;;5129637;27;20054;-70
2023/12/16 13:06:08;;;;;;;12.27;6.50;;;;;;;;;;5128501;27;20122;-70
2023/12/16 13:08:34;;;;;;;16.40;6.40;;;;;;;;;;5120385;27;20456;-70
2023/12/16 13:11:00;;;;;;;16.70;6.30;;;;;;;;;;5120241;27;20046;-70
2023/12/16 13:13:26;;;;;;;15.32;5.78;;;;;;;;;;5129766;27;20093;-70
2023/12/16 13:15:53;;;;;;;12.77;5.38;;;;;;;;;;5124784;27;20047;-70
2023/12/16 13:18:19;;;;;;;16.38;5.15;;;;;;;;;;5121346;27;20039;-70
2023/12/16 13:20:45;;;;;;;11.82;4.60;;;;;;;;;;5132264;27;20115;-70
2023/12/16 13:23:13;;;;;;;17.42;5.70;;;;;;;;;;5118160;27;20066;-70
2023/12/16 13:25:39;;;;;;;12.43;4.68;;;;;;;;;;5121858;27;20043;-70
2023/12/16 13:28:05;;;;;;;10.00;4.68;;;;;;;;;;5123289;27;20070;-70
2023/12/16 13:30:32;;;;;;;13.40;5.00;;;;;;;;;;5112443;27;20061;-71
2023/12/16 13:32:58;;;;;;;24.85;6.30;;;;;;;;;;5127234;27;20455;-70
2023/12/16 13:35:24;;;;;;;19.02;5.90;;;;;;;;;;5120149;27;20078;-70
2023/12/16 13:37:50;;;;;;;16.48;5.15;;;;;;;;;;5124915;27;20042;-70
2023/12/16 13:40:16;;;;;;;17.75;5.78;;;;;;;;;;5124236;27;20043;-70
2023/12/16 13:42:42;;;;;;;16.80;5.82;;;;;;;;;;5123448;27;20105;-70
2023/12/16 13:45:08;;;;;;;16.73;5.88;;;;;;;;;;5115442;27;20970;-70
2023/12/16 13:47:34;;;;;;;18.30;5.90;;;;;;;;;;5121651;27;20035;-70
2023/12/16 13:50:00;;;;;;;17.17;5.53;;;;;;;;;;5127158;27;20077;-71
2023/12/16 13:52:27;;;;;;;17.85;5.75;;;;;;;;;;5122987;27;20047;-70
2023/12/16 13:54:53;;;;;;;13.27;4.75;;;;;;;;;;5121173;27;20047;-70
2023/12/16 13:57:19;;;;;;;15.32;5.63;;;;;;;;;;5126789;27;20626;-70
2023/12/16 13:59:45;;;;;;;14.13;5.45;;;;;;;;;;5127047;27;20453;-70
2023/12/16 14:02:11;;;;;;;14.45;5.80;;;;;;;;;;5128583;27;20082;-70
2023/12/16 14:04:38;;;;;;;15.73;5.78;;;;;;;;;;5129935;27;20474;-70
2023/12/16 14:07:04;;;;;;;14.50;5.70;;;;;;;;;;5131944;27;20070;-70
2023/12/16 14:09:30;;;;;;;11.25;5.18;;;;;;;;;;5122129;27;20070;-70
2023/12/16 14:11:56;;;;;;;18.55;6.03;;;;;;;;;;5124577;27;20047;-70
2023/12/16 14:14:22;;;;;;;15.85;5.38;;;;;;;;;;5117730;27;20482;-70
2023/12/16 14:16:48;;;;;;;18.58;6.13;;;;;;;;;;5123049;27;20050;-71
2023/12/16 14:19:15;;;;;;;13.70;5.68;;;;;;;;;;5124054;27;20053;-70
2023/12/16 14:21:40;;;;;;;15.20;5.88;;;;;;;;;;5128506;27;20479;-71
2023/12/16 14:24:06;;;;;;;16.08;5.30;;;;;;;;;;5122713;27;20049;-70
2023/12/16 14:26:33;;;;;;;15.98;6.28;;;;;;;;;;5122565;27;20035;-72
2023/12/16 14:28:59;;;;;;;17.10;4.85;;;;;;;;;;5122479;27;20053;-70